< < Back
Terminal Aerodrome Forecast


Current Version              Previous Versions:   1  2  3  4  5  6  7  8  9  

Terminal Aerodrome Forecast

948
FTUS42 KCHS 022335
TAFSAV
TAF
KSAV 022335Z 0300/0324 24004KT P6SM SCT035
     FM030500 VRB03KT 5SM BR SCT008 BKN020
     FM030900 03006KT 5SM BR OVC008
     FM031500 08006KT P6SM OVC008=

Latest METAR

737
SAUS80 KWBC 030400
MTRSAV
METAR KSAV 030353Z 00000KT 10SM FEW050 SCT250 16/14 A3025 RMK AO2 SLP244
T01610144 $


USA.gov is the U.S. government's official web portal to all federal, state and local government web resources and services.